Port Hood, Canada
Current Conditions -  °F | °C
As of 4:00 PM on Saturday 20 Dec 2014 (Local Time) from CYPD Reporting Station
Overcast Overcast  
Wind Chill: -2°   Ceiling: 2900
Heat Index:   Visibility: 9mi
Dew Point: -3°   Wind: 6mph
Humidity: 75%   Direction: 20°NNE
Pressure: 30.21"   Gusts: NA
Location:  46.03°N, 61.53°W
Report Text: CYPD 202000Z AUTO 02005KT 350V050 9SM OVC029 01/M03 A3021 RMK SLP234
Loading
Personal Weather Stations






























Interactive Weather Map New forecast layout! Learn more

10-Day Weather Forecast

Advertisements
Track Severe Weather on mobile